• Join FlightAware (Why Join?)
  • Login
  • US Flag 
07:58PM EDT


 

Airport Tracker/Info


-or-


 

Live Flight TrackerFlight Track Log ✈ KFS28 ✈ 02-Jul-2013 ✈ KCNY - KELP

Flight Track Log - Related Links

Times and Time Zones

All times are in EDT time to prevent confusion due to time zone crossing. See the KFS28 flight status page for this flight to view local times or setup timezone preferences in your user account.

Time Position Orientation Groundspeed Altitude Reporting Facility
EDT Latitude Longitude Course Direction KTS MPH feet Rate Location/Type
09:59PM 38.1599 -109.4366 156° South  Level FlightAware Approximate
09:59PM 38.7736 -109.7381 156° South 146 168 5,600  Level Denver Center
10:00PM 38.0621 -109.3811 158° South  Level FlightAware Approximate
10:00PM 38.7769 -109.7792 276° West 226 260 7,200  Level Denver Center
10:01PM 37.9625 -109.3312 158° South  Level FlightAware Approximate
10:01PM 38.7172 -109.7603 166° South 202 232 9,600  Level Denver Center
10:02PM 37.8633 -109.2802 157° South  Level FlightAware Approximate
10:02PM 38.6592 -109.7369 163° South 211 243 11,100  Level Denver Center
10:03PM 37.7648 -109.2271 157° South  Level FlightAware Approximate
10:03PM 38.5911 -109.7017 158° South 240 276 12,500  Level Denver Center
10:04PM 37.6664 -109.1736 156° South  Level FlightAware Approximate
10:04PM 38.5169 -109.6547 154° Southeast 276 318 14,600  Level Denver Center
10:05PM 38.4275 -109.5997 154° Southeast 301 346 16,300 1,740 Climbing Denver Center
10:06PM 38.3292 -109.5472 157° South 325 374 18,300 1,740 Climbing Denver Center
10:07PM 38.2425 -109.4994 157° South 344 396 20,000 1,680 Climbing Denver Center
10:08PM 38.1400 -109.4475 158° South 354 407 21,800 1,380 Climbing Denver Center
10:09PM 38.0497 -109.3972 156° South 365 420 22,900 960 Climbing Denver Center
10:10PM 37.9661 -109.3544 158° South 382 440 23,800 1,440 Climbing Denver Center
10:11PM 37.8375 -109.2825 156° South 393 452 25,900 1,560 Climbing Denver Center
10:12PM 37.7414 -109.2333 158° South 389 448 27,000 1,020 Climbing Denver Center
10:13PM 37.6247 -109.1733 158° South 402 463 28,100 1,080 Climbing Denver Center
10:14PM 37.5233 -109.1222 158° South 408 470 29,300 960 Climbing Denver Center
10:15PM 37.4219 -109.0694 158° South 411 473 30,200 900 Climbing Denver Center
10:16PM 37.3014 -109.0069 158° South 417 480 31,200 780 Climbing Denver Center
10:17PM 37.1964 -108.9531 158° South 425 489 31,900 720 Climbing Denver Center
10:18PM 37.0739 -108.8881 157° South 427 491 32,700 480 Climbing Denver Center
10:19PM 36.9661 -108.8311 157° South 435 501 33,000 120 Climbing Denver Center
10:20PM 36.8719 -108.7853 159° South 450 518 33,000  Level Denver Center
10:22PM 36.7189 -108.7050 157° South 465 535 33,000  Level Denver Center
10:23PM 36.6203 -108.6542 158° South 474 545 33,000  Level Denver Center
10:24PM 36.4631 -108.5731 157° South 476 548 33,000  Level Denver Center
10:25PM 36.3444 -108.5131 158° South 477 549 33,000  Level Denver Center
10:26PM 36.2242 -108.4531 158° South 479 551 33,000  Level Denver Center
10:27PM 36.0856 -108.3828 158° South 479 551 33,000  Level Denver Center
10:27PM 36.0058 -108.3467 160° South 476 548 33,000  Level Albuquerque Center
10:28PM 35.8878 -108.2906 159° South 473 544 33,000  Level Albuquerque Center
10:29PM 35.7500 -108.2231 158° South 474 545 33,000  Level Albuquerque Center
10:30PM 35.6331 -108.1644 158° South 473 544 33,000  Level Albuquerque Center
10:31PM 35.5153 -108.1061 158° South 474 545 33,000  Level Albuquerque Center
10:32PM 35.3808 -108.0406 158° South 467 537 33,000  Level Albuquerque Center
10:33PM 35.2647 -107.9833 158° South 468 539 33,000  Level Albuquerque Center
10:34PM 35.1294 -107.9167 158° South 468 539 33,000  Level Albuquerque Center
10:35PM 35.0125 -107.8619 159° South 469 540 33,000  Level Albuquerque Center
10:37PM 34.8972 -107.8072 159° South 468 539 33,000  Level Albuquerque Center
10:38PM 34.7778 -107.7500 159° South 465 535 33,000  Level Albuquerque Center
10:39PM 34.6583 -107.6936 159° South 464 534 33,000  Level Albuquerque Center
10:40PM 34.5397 -107.6364 158° South 462 532 33,000  Level Albuquerque Center
10:41PM 34.3981 -107.5694 159° South 459 528 33,000  Level Albuquerque Center
10:42PM 34.2869 -107.5183 159° South 460 529 33,000  Level Albuquerque Center
10:43PM 34.1594 -107.4889 169° South 465 535 33,000  Level Albuquerque Center
10:44PM 34.0306 -107.4725 174° South 466 536 33,000  Level Albuquerque Center
10:45PM 33.9014 -107.4431 169° South 470 541 33,000  Level Albuquerque Center
10:46PM 33.7736 -107.4042 166° South 471 542 33,000  Level Albuquerque Center
10:47PM 33.6178 -107.3606 167° South 478 550 33,000  Level Albuquerque Center
10:48PM 33.4875 -107.3286 168° South 478 550 33,000  Level Albuquerque Center
10:49PM 33.3561 -107.2978 169° South 480 552 33,000  Level Albuquerque Center
10:50PM 33.2267 -107.2519 164° South 482 555 33,000 -60 Level Albuquerque Center
10:51PM 33.0992 -107.2189 168° South 474 545 32,900 -960 Descending Albuquerque Center
10:52PM 32.9706 -107.2181 180° South 466 536 31,100 -1,680 Descending Albuquerque Center
10:53PM 32.8469 -107.2197 181° South 451 519 29,600 -1,320 Descending Albuquerque Center
10:54PM 32.7311 -107.2236 182° South 424 488 28,500 -1,620 Descending Albuquerque Center
10:55PM 32.6147 -107.2256 181° South 413 475 26,300 -1,980 Descending Albuquerque Center
10:56PM 32.5036 -107.2244 180° South 404 465 24,500 -2,220 Descending Albuquerque Center
10:57PM 32.4033 -107.2247 180° South 372 428 21,900 -2,460 Descending Albuquerque Center
10:58PM 32.2900 -107.1883 165° South 358 412 19,600 -2,040 Descending Albuquerque Center
10:59PM 32.2439 -107.1019 122° Southeast 361 415 17,700 -1,920 Descending Albuquerque Center
11:00PM 32.2011 -107.0258 124° Southeast 379 436 16,500 -1,920 Descending Albuquerque Center
11:01PM 32.1592 -106.9206 115° Southeast 350 403 14,700 -1,680 Descending Albuquerque Center
11:02PM 32.1181 -106.8206 116° Southeast 340 391 13,200 -900 Descending Albuquerque Center
11:02PM 32.0775 -106.7353 119° Southeast 322 371 13,000 -540 Descending Albuquerque Center
11:03PM 32.0628 -106.6839 109° East 317 365 12,400 -1,200 Descending Albuquerque Center
11:04PM 32.0514 -106.5869 98° East 301 346 11,100 -1,200 Descending Albuquerque Center
11:05PM 32.0428 -106.4936 96° East 290 334 10,000 -1,320 Descending Albuquerque Center
11:06PM 32.0350 -106.4044 96° East 277 319 8,500 -1,380 Descending Albuquerque Center
11:07PM 32.0031 -106.3267 116° Southeast 265 305 7,200 -900 Descending Albuquerque Center
11:08PM 31.9467 -106.2692 139° Southeast 162 186 6,500 -540 Descending Albuquerque Center
11:09PM 31.9153 -106.2792 195° South 161 185 6,100 -540 Descending Albuquerque Center
11:10PM 31.8761 -106.2989 203° Southwest 159 183 5,600 -720 Descending Albuquerque Center
11:11PM 31.8444 -106.3386 227° Southwest 165 190 4,700 -840 Descending Albuquerque Center
11:12PM 31.8164 -106.3772 229° Southwest 141 162 3,900 -840 Descending Albuquerque Center
11:14PM 31.8072 -106.3764 213° Southwest  Level Estimated
11:21PM 31.8072 -106.3764 213° Southwest  Level Estimated
11:22PM 31.8072 -106.3764 213° Southwest  Level Estimated
11:23PM 31.8072 -106.3764 213° Southwest  Level Estimated